Time;durP1;ratioP1;P1;durP2;ratioP2;P2;SDS_P1;SDS_P2;PMS_P1;PMS_P2;Temp;Humidity;BMP_temperature;BMP_pressure;BME280_temperature;BME280_humidity;BME280_pressure;Samples;Min_cycle;Max_cycle;Signal;HPM_P1;HPM_P2
2022/12/27 00:02:22;;;;;;;;;;;4.30;99.90;;;;;;5051030;28;20452;-50
2022/12/27 00:04:48;;;;;;;;;;;4.30;99.90;;;;;;5051302;28;19909;-51
2022/12/27 00:07:14;;;;;;;;;;;4.30;99.90;;;;;;5050943;28;20292;-49
2022/12/27 00:09:40;;;;;;;;;;;4.30;99.90;;;;;;5050861;28;19926;-53
2022/12/27 00:12:06;;;;;;;;;;;4.30;99.90;;;;;;5051233;28;19908;-53
2022/12/27 00:14:31;;;;;;;;;;;4.30;99.90;;;;;;5051516;28;19909;-53
2022/12/27 00:16:57;;;;;;;;;;;4.20;99.90;;;;;;5050692;28;20281;-55
2022/12/27 00:19:23;;;;;;;;;;;4.20;99.90;;;;;;5051062;28;19916;-49
2022/12/27 00:21:48;;;;;;;;;;;4.30;99.90;;;;;;5051020;28;19971;-53
2022/12/27 00:24:14;;;;;;;;;;;4.30;99.90;;;;;;5049719;28;20003;-51
2022/12/27 00:26:40;;;;;;;;;;;4.30;99.90;;;;;;5050896;28;19927;-52
2022/12/27 00:29:06;;;;;;;;;;;4.30;99.90;;;;;;5049383;28;19919;-52
2022/12/27 00:31:32;;;;;;;;;;;4.20;99.90;;;;;;5049420;28;20339;-54
2022/12/27 00:33:59;;;;;;;;;;;4.20;99.90;;;;;;5050756;28;19909;-50
2022/12/27 00:36:26;;;;;;;;;;;4.20;99.90;;;;;;5050601;28;19909;-53
2022/12/27 00:38:52;;;;;;;;;;;4.20;99.90;;;;;;5050727;28;19971;-52
2022/12/27 00:41:18;;;;;;;;;;;4.20;99.90;;;;;;5050821;28;19966;-53
2022/12/27 00:43:44;;;;;;;;;;;4.10;99.90;;;;;;5050710;28;19913;-51
2022/12/27 00:46:09;;;;;;;;;;;4.10;99.90;;;;;;5050602;28;20445;-51
2022/12/27 00:48:35;;;;;;;;;;;4.10;99.90;;;;;;5050436;28;20003;-51
2022/12/27 00:51:02;;;;;;;;;;;4.10;99.90;;;;;;5050647;28;19920;-53
2022/12/27 00:53:28;;;;;;;;;;;4.10;99.90;;;;;;5054507;28;19909;-52
2022/12/27 00:55:54;;;;;;;;;;;4.10;99.90;;;;;;5054626;28;19954;-52
2022/12/27 00:58:20;;;;;;;;;;;4.10;99.90;;;;;;5054327;28;19909;-52
2022/12/27 01:00:45;;;;;;;;;;;4.10;99.90;;;;;;5054273;28;19912;-52
2022/12/27 01:03:11;;;;;;;;;;;4.20;99.90;;;;;;5054428;28;19916;-49
2022/12/27 01:05:37;;;;;;;;;;;4.10;99.90;;;;;;5054492;28;20353;-50
2022/12/27 01:08:03;;;;;;;;;;;4.10;99.90;;;;;;5054543;28;19954;-54
2022/12/27 01:10:28;;;;;;;;;;;4.20;99.90;;;;;;5054226;28;20047;-50
2022/12/27 01:12:54;;;;;;;;;;;4.20;99.90;;;;;;5054237;28;19974;-52
2022/12/27 01:15:20;;;;;;;;;;;4.20;99.90;;;;;;5054219;28;19909;-53
2022/12/27 01:17:45;;;;;;;;;;;4.20;99.90;;;;;;5054027;28;19911;-51
2022/12/27 01:20:11;;;;;;;;;;;4.20;99.90;;;;;;5053937;28;19955;-53
2022/12/27 01:22:37;;;;;;;;;;;4.20;99.90;;;;;;5054196;28;20296;-52
2022/12/27 01:25:02;;;;;;;;;;;4.20;99.90;;;;;;5054232;28;19963;-52
2022/12/27 01:27:28;;;;;;;;;;;4.30;99.90;;;;;;5053808;28;20000;-52
2022/12/27 01:29:53;;;;;;;;;;;4.30;99.90;;;;;;5053836;28;19909;-51
2022/12/27 01:32:20;;;;;;;;;;;4.20;99.90;;;;;;5054270;28;20152;-55
2022/12/27 01:34:45;;;;;;;;;;;4.30;99.90;;;;;;5053850;28;20365;-51
2022/12/27 01:37:11;;;;;;;;;;;4.30;99.90;;;;;;5053579;28;19909;-52
2022/12/27 01:39:36;;;;;;;;;;;4.20;99.90;;;;;;5053680;28;19916;-53
2022/12/27 01:44:52;;;;;;;;;;;4.20;99.90;;;;;;5053661;28;19919;-53
2022/12/27 01:47:28;;;;;;;;;;;4.20;99.90;;;;;;5053435;28;19920;-52
2022/12/27 01:49:59;;;;;;;;;;;4.20;99.90;;;;;;5053206;28;19995;-52
2022/12/27 01:52:27;;;;;;;;;;;4.20;99.90;;;;;;5052082;28;20361;-50
2022/12/27 01:54:54;;;;;;;;;;;4.10;99.90;;;;;;5052219;28;20289;-51
2022/12/27 01:57:20;;;;;;;;;;;4.10;99.90;;;;;;5053151;28;20365;-52
2022/12/27 01:59:46;;;;;;;;;;;4.10;99.90;;;;;;5053127;28;20000;-51
2022/12/27 02:02:12;;;;;;;;;;;4.00;99.90;;;;;;5053386;28;19918;-52
2022/12/27 02:04:38;;;;;;;;;;;4.00;99.90;;;;;;5052804;28;20095;-53
2022/12/27 02:07:04;;;;;;;;;;;4.10;99.90;;;;;;5052947;28;19913;-52
2022/12/27 02:09:34;;;;;;;;;;;4.10;99.90;;;;;;5053152;28;19904;-50
2022/12/27 02:12:01;;;;;;;;;;;4.10;99.90;;;;;;5053308;28;19953;-49
2022/12/27 02:14:29;;;;;;;;;;;4.10;99.90;;;;;;5053242;28;19978;-53
2022/12/27 02:16:55;;;;;;;;;;;4.00;99.90;;;;;;5052954;28;19932;-49
2022/12/27 02:19:39;;;;;;;;;;;4.00;99.90;;;;;;5052881;28;20460;-52
2022/12/27 02:22:23;;;;;;;;;;;4.00;99.90;;;;;;5053175;28;19980;-51
2022/12/27 02:25:02;;;;;;;;;;;4.10;99.90;;;;;;5053012;28;19912;-50
2022/12/27 02:27:46;;;;;;;;;;;4.10;99.90;;;;;;5052745;28;19908;-52
2022/12/27 02:30:12;;;;;;;;;;;4.10;99.90;;;;;;5052520;28;20270;-50
2022/12/27 02:32:40;;;;;;;;;;;4.00;99.90;;;;;;5052842;28;19915;-52
2022/12/27 02:35:06;;;;;;;;;;;4.00;99.90;;;;;;5053207;28;19991;-49
2022/12/27 02:37:32;;;;;;;;;;;4.00;99.90;;;;;;5052500;28;19916;-52
2022/12/27 02:53:02;;;;;;;;;;;4.00;99.90;;;;;;5052586;28;19931;-52
2022/12/27 02:54:19;;;;;;;;;;;4.10;99.90;;;;;;5052508;28;19908;-53
2022/12/27 02:57:09;;;;;;;;;;;4.10;99.90;;;;;;5052272;28;19908;-50
2022/12/27 03:03:19;;;;;;;;;;;4.10;99.90;;;;;;5052321;28;20378;-53
2022/12/27 03:03:20;;;;;;;;;;;4.20;99.90;;;;;;5052293;28;20354;-50
2022/12/27 03:05:29;;;;;;;;;;;4.20;99.90;;;;;;5041518;28;20440;-52
2022/12/27 03:08:02;;;;;;;;;;;4.10;99.90;;;;;;5051985;28;19928;-52
2022/12/27 03:16:25;;;;;;;;;;;4.10;99.90;;;;;;5050681;28;20383;-53
2022/12/27 03:19:04;;;;;;;;;;;4.10;99.90;;;;;;5051851;28;20320;-52
2022/12/27 03:27:03;;;;;;;;;;;4.10;99.90;;;;;;5051899;28;19956;-52
2022/12/27 03:35:20;;;;;;;;;;;4.10;99.90;;;;;;5051782;28;20288;-51
2022/12/27 03:38:03;;;;;;;;;;;4.10;99.90;;;;;;5051144;28;19909;-52
2022/12/27 03:40:37;;;;;;;;;;;4.10;99.90;;;;;;5051412;28;19919;-53
2022/12/27 03:43:13;;;;;;;;;;;4.10;99.90;;;;;;5051379;28;19919;-53
2022/12/27 03:48:46;;;;;;;;;;;4.10;99.90;;;;;;5051231;28;19920;-53
2022/12/27 03:51:14;;;;;;;;;;;4.10;99.90;;;;;;5051394;28;20362;-51
2022/12/27 03:53:41;;;;;;;;;;;4.00;99.90;;;;;;5051365;28;19909;-53
2022/12/27 03:56:07;;;;;;;;;;;4.10;99.90;;;;;;5051440;28;19908;-50
2022/12/27 03:58:33;;;;;;;;;;;4.20;99.90;;;;;;5050951;28;20096;-51
2022/12/27 04:00:58;;;;;;;;;;;4.20;99.90;;;;;;5051209;28;20007;-53
2022/12/27 04:03:24;;;;;;;;;;;4.20;99.90;;;;;;5051175;28;19913;-53
2022/12/27 04:05:50;;;;;;;;;;;4.20;99.90;;;;;;5051178;28;19909;-51
2022/12/27 04:35:36;;;;;;;;;;;4.30;99.90;;;;;;5057811;28;19916;-50
2022/12/27 04:38:02;;;;;;;;;;;4.30;99.90;;;;;;5057407;28;19909;-49
2022/12/27 04:57:00;;;;;;;;;;;4.30;99.90;;;;;;5057163;28;19915;-52
2022/12/27 05:02:09;;;;;;;;;;;4.40;99.90;;;;;;5057327;28;20383;-53
2022/12/27 05:04:36;;;;;;;;;;;4.40;99.90;;;;;;5057295;28;19912;-50
2022/12/27 05:13:58;;;;;;;;;;;4.50;99.90;;;;;;5057049;28;19993;-51
2022/12/27 05:15:17;;;;;;;;;;;4.50;99.90;;;;;;5057398;28;19948;-51
2022/12/27 05:17:44;;;;;;;;;;;4.40;99.90;;;;;;5057050;28;20331;-50
2022/12/27 05:20:10;;;;;;;;;;;4.40;99.90;;;;;;5057156;28;19905;-52
2022/12/27 05:25:37;;;;;;;;;;;4.40;99.90;;;;;;5057310;28;19970;-52
2022/12/27 05:28:07;;;;;;;;;;;4.40;99.90;;;;;;5056794;28;19912;-53
2022/12/27 05:30:37;;;;;;;;;;;4.40;99.90;;;;;;5056934;28;20195;-50
2022/12/27 05:33:03;;;;;;;;;;;4.30;99.90;;;;;;5057120;28;19909;-50
2022/12/27 05:35:29;;;;;;;;;;;4.30;99.90;;;;;;5057011;28;19905;-52
2022/12/27 05:37:54;;;;;;;;;;;4.30;99.90;;;;;;5055708;28;20285;-53
2022/12/27 05:40:20;;;;;;;;;;;4.30;99.90;;;;;;5053260;28;19909;-53
2022/12/27 05:42:46;;;;;;;;;;;4.30;99.90;;;;;;5053781;28;19920;-53
2022/12/27 05:45:13;;;;;;;;;;;4.20;99.90;;;;;;5053829;28;19909;-52
2022/12/27 05:47:39;;;;;;;;;;;4.20;99.90;;;;;;5053393;28;20328;-52
2022/12/27 05:50:04;;;;;;;;;;;4.20;99.90;;;;;;5053463;28;19916;-50
2022/12/27 05:52:30;;;;;;;;;;;4.20;99.90;;;;;;5053586;28;19908;-54
2022/12/27 05:54:55;;;;;;;;;;;4.10;99.90;;;;;;5053618;28;19908;-53
2022/12/27 05:57:21;;;;;;;;;;;4.10;99.90;;;;;;5053645;28;19954;-54
2022/12/27 05:59:47;;;;;;;;;;;4.10;99.90;;;;;;5053339;28;19919;-53
2022/12/27 06:02:12;;;;;;;;;;;4.20;99.90;;;;;;5053554;28;19962;-54
2022/12/27 06:04:38;;;;;;;;;;;4.20;99.90;;;;;;5053280;28;20003;-52
2022/12/27 06:07:03;;;;;;;;;;;4.20;99.90;;;;;;5053453;28;19908;-51
2022/12/27 06:09:29;;;;;;;;;;;4.20;99.90;;;;;;5053203;28;19939;-50
2022/12/27 06:11:55;;;;;;;;;;;4.20;99.90;;;;;;5051915;28;19917;-54
2022/12/27 06:14:20;;;;;;;;;;;4.10;99.90;;;;;;5053400;28;19919;-54
2022/12/27 06:16:46;;;;;;;;;;;4.10;99.90;;;;;;5052959;28;19912;-50
2022/12/27 06:19:11;;;;;;;;;;;4.10;99.90;;;;;;5053359;28;19908;-52
2022/12/27 06:21:37;;;;;;;;;;;4.10;99.90;;;;;;5053059;28;19944;-52
2022/12/27 06:24:03;;;;;;;;;;;4.10;99.90;;;;;;5053171;28;19917;-53
2022/12/27 06:26:29;;;;;;;;;;;4.00;99.90;;;;;;5052835;28;20284;-51
2022/12/27 06:28:55;;;;;;;;;;;4.00;99.90;;;;;;5052957;28;20145;-54
2022/12/27 06:31:21;;;;;;;;;;;4.00;99.90;;;;;;5052891;28;20003;-55
2022/12/27 06:33:47;;;;;;;;;;;4.00;99.90;;;;;;5052891;28;19951;-52
2022/12/27 06:36:14;;;;;;;;;;;4.00;99.90;;;;;;5052809;28;19957;-49
2022/12/27 06:38:40;;;;;;;;;;;4.00;99.90;;;;;;5052526;28;20002;-51
2022/12/27 06:41:07;;;;;;;;;;;4.00;99.90;;;;;;5052785;28;19971;-50
2022/12/27 06:43:32;;;;;;;;;;;4.00;99.90;;;;;;5052701;28;19912;-51
2022/12/27 06:45:59;;;;;;;;;;;4.00;99.90;;;;;;5052739;28;19915;-52
2022/12/27 06:48:25;;;;;;;;;;;4.00;99.90;;;;;;5052170;28;19912;-50
2022/12/27 06:50:51;;;;;;;;;;;4.00;99.90;;;;;;5052444;28;19915;-52
2022/12/27 06:53:17;;;;;;;;;;;4.00;99.90;;;;;;5052559;28;19915;-50
2022/12/27 06:55:42;;;;;;;;;;;4.00;99.90;;;;;;5052640;28;20368;-51
2022/12/27 06:58:08;;;;;;;;;;;4.00;99.90;;;;;;5052261;28;19963;-52
2022/12/27 07:00:33;;;;;;;;;;;3.90;99.90;;;;;;5052172;28;19959;-53
2022/12/27 07:02:59;;;;;;;;;;;3.90;99.90;;;;;;5052281;28;19913;-54
2022/12/27 07:05:25;;;;;;;;;;;3.90;99.90;;;;;;5052251;28;20273;-52
2022/12/27 07:07:52;;;;;;;;;;;3.90;99.90;;;;;;5051866;28;19916;-52
2022/12/27 07:10:18;;;;;;;;;;;3.90;99.90;;;;;;5051886;28;20361;-49
2022/12/27 07:12:43;;;;;;;;;;;3.90;99.90;;;;;;5052164;28;19916;-50
2022/12/27 07:15:09;;;;;;;;;;;3.90;99.90;;;;;;5052597;28;19916;-51
2022/12/27 07:17:35;;;;;;;;;;;3.80;99.90;;;;;;5051667;28;20007;-53
2022/12/27 07:20:04;;;;;;;;;;;3.80;99.90;;;;;;5052002;28;19934;-53
2022/12/27 07:22:30;;;;;;;;;;;3.80;99.90;;;;;;5051953;28;19909;-50
2022/12/27 07:24:55;;;;;;;;;;;3.80;99.90;;;;;;5051957;28;20368;-51
2022/12/27 07:27:21;;;;;;;;;;;3.80;99.90;;;;;;5051567;28;19915;-51
2022/12/27 07:29:47;;;;;;;;;;;3.80;99.90;;;;;;5051697;28;19988;-49
2022/12/27 07:32:12;;;;;;;;;;;3.90;99.90;;;;;;5051655;28;19916;-51
2022/12/27 07:34:38;;;;;;;;;;;3.90;99.90;;;;;;5052112;28;19998;-50
2022/12/27 07:37:04;;;;;;;;;;;3.90;99.90;;;;;;5051607;28;19999;-51
2022/12/27 07:39:29;;;;;;;;;;;4.00;99.90;;;;;;5051687;28;19909;-53
2022/12/27 07:41:55;;;;;;;;;;;4.00;99.90;;;;;;5051583;28;19912;-53
2022/12/27 07:44:22;;;;;;;;;;;4.00;99.90;;;;;;5050231;28;19913;-53
2022/12/27 07:46:48;;;;;;;;;;;4.00;99.90;;;;;;5051155;28;19934;-50
2022/12/27 07:49:14;;;;;;;;;;;4.00;99.90;;;;;;5051380;28;20003;-51
2022/12/27 07:51:40;;;;;;;;;;;4.00;99.90;;;;;;5051516;28;19919;-53
2022/12/27 07:54:06;;;;;;;;;;;4.00;99.90;;;;;;5051427;28;19908;-54
2022/12/27 07:56:31;;;;;;;;;;;4.10;99.90;;;;;;5051442;28;20353;-52
2022/12/27 07:58:58;;;;;;;;;;;4.10;99.90;;;;;;5051200;28;19962;-53
2022/12/27 08:01:24;;;;;;;;;;;4.10;99.90;;;;;;5050638;28;20395;-50
2022/12/27 08:03:50;;;;;;;;;;;4.10;99.90;;;;;;5051216;28;19912;-54
2022/12/27 08:06:19;;;;;;;;;;;4.10;99.90;;;;;;5051238;28;19932;-51
2022/12/27 08:08:44;;;;;;;;;;;4.10;99.90;;;;;;5051095;28;19912;-51
2022/12/27 08:11:10;;;;;;;;;;;4.10;99.90;;;;;;5051211;28;19958;-52
2022/12/27 08:13:36;;;;;;;;;;;4.10;99.90;;;;;;5051149;28;19913;-49
2022/12/27 08:16:02;;;;;;;;;;;4.10;99.90;;;;;;5051008;28;20377;-50
2022/12/27 08:18:28;;;;;;;;;;;4.20;99.90;;;;;;5050895;28;19915;-52
2022/12/27 08:20:54;;;;;;;;;;;4.20;99.90;;;;;;5050869;28;19952;-52
2022/12/27 08:23:20;;;;;;;;;;;4.30;99.90;;;;;;5051016;28;20010;-54
2022/12/27 08:25:46;;;;;;;;;;;4.30;99.90;;;;;;5051106;28;19990;-51
2022/12/27 08:28:12;;;;;;;;;;;4.30;99.90;;;;;;5050740;28;19996;-52
2022/12/27 08:30:39;;;;;;;;;;;4.30;99.90;;;;;;5050647;28;20240;-53
2022/12/27 08:33:04;;;;;;;;;;;4.50;99.90;;;;;;5050963;28;19908;-55
2022/12/27 08:35:31;;;;;;;;;;;4.50;99.90;;;;;;5050780;28;19955;-55
2022/12/27 08:37:59;;;;;;;;;;;4.50;99.90;;;;;;5050708;28;19932;-55
2022/12/27 08:40:26;;;;;;;;;;;4.60;99.90;;;;;;5050739;28;20281;-53
2022/12/27 08:42:53;;;;;;;;;;;4.60;99.90;;;;;;5050706;28;19913;-52
2022/12/27 08:45:19;;;;;;;;;;;4.60;99.90;;;;;;5050893;28;19915;-50
2022/12/27 08:47:44;;;;;;;;;;;4.60;99.90;;;;;;5050494;28;19913;-53
2022/12/27 08:50:10;;;;;;;;;;;4.70;99.90;;;;;;5050504;28;19904;-55
2022/12/27 08:52:35;;;;;;;;;;;4.70;99.90;;;;;;5051005;28;19909;-56
2022/12/27 08:55:01;;;;;;;;;;;4.80;99.90;;;;;;5050754;28;20407;-54
2022/12/27 08:57:27;;;;;;;;;;;4.80;99.90;;;;;;5050423;28;19952;-54
2022/12/27 08:59:53;;;;;;;;;;;4.90;99.90;;;;;;5049024;28;19948;-54
2022/12/27 09:02:18;;;;;;;;;;;4.90;99.90;;;;;;5050681;28;19909;-54
2022/12/27 09:04:44;;;;;;;;;;;4.90;99.90;;;;;;5050619;28;20000;-53
2022/12/27 09:07:09;;;;;;;;;;;4.90;99.90;;;;;;5050404;28;19915;-53
2022/12/27 09:09:35;;;;;;;;;;;5.10;99.90;;;;;;5050400;28;19909;-52
2022/12/27 09:12:00;;;;;;;;;;;5.10;99.90;;;;;;5050692;28;20418;-51
2022/12/27 09:14:26;;;;;;;;;;;5.10;99.90;;;;;;5052487;28;19916;-55
2022/12/27 09:16:52;;;;;;;;;;;5.20;99.90;;;;;;5054167;28;19932;-54
2022/12/27 09:19:17;;;;;;;;;;;5.20;99.90;;;;;;5054034;28;19963;-51
2022/12/27 09:21:43;;;;;;;;;;;5.30;99.90;;;;;;5054221;28;19995;-52
2022/12/27 09:24:12;;;;;;;;;;;5.30;99.90;;;;;;5054162;28;20288;-52
2022/12/27 09:26:38;;;;;;;;;;;5.30;99.90;;;;;;5053838;28;19930;-50
2022/12/27 09:29:04;;;;;;;;;;;5.50;99.90;;;;;;5054091;28;19958;-53
2022/12/27 09:31:29;;;;;;;;;;;5.60;99.90;;;;;;5054008;28;19954;-53
2022/12/27 09:33:57;;;;;;;;;;;5.60;99.90;;;;;;5054057;28;19911;-53
2022/12/27 09:36:26;;;;;;;;;;;5.70;99.90;;;;;;5053724;28;19909;-53
2022/12/27 09:38:53;;;;;;;;;;;5.80;99.90;;;;;;5053696;28;19908;-50
2022/12/27 09:41:19;;;;;;;;;;;5.90;99.90;;;;;;5053801;28;20095;-52
2022/12/27 09:43:50;;;;;;;;;;;5.90;99.90;;;;;;5053748;28;20006;-53
2022/12/27 09:46:19;;;;;;;;;;;6.00;99.90;;;;;;5053571;28;19909;-50
2022/12/27 09:48:45;;;;;;;;;;;6.10;99.90;;;;;;5053511;28;19935;-53
2022/12/27 09:51:17;;;;;;;;;;;6.20;99.90;;;;;;5053849;28;19934;-53
2022/12/27 09:54:01;;;;;;;;;;;6.20;99.90;;;;;;5053603;28;20285;-49
2022/12/27 09:56:28;;;;;;;;;;;6.30;99.90;;;;;;5053345;28;19909;-53
2022/12/27 09:58:57;;;;;;;;;;;6.50;99.90;;;;;;5053443;28;19934;-49
2022/12/27 10:01:26;;;;;;;;;;;6.50;99.90;;;;;;5053636;28;19908;-51
2022/12/27 10:03:51;;;;;;;;;;;6.60;99.90;;;;;;5053476;28;20289;-53
2022/12/27 10:06:29;;;;;;;;;;;6.80;99.90;;;;;;5053170;28;19908;-52
2022/12/27 10:09:06;;;;;;;;;;;6.90;99.90;;;;;;5053322;28;20281;-53
2022/12/27 10:11:37;;;;;;;;;;;7.10;99.90;;;;;;5053383;28;20281;-52
2022/12/27 10:14:03;;;;;;;;;;;7.40;99.90;;;;;;5053402;28;20373;-49
2022/12/27 10:16:33;;;;;;;;;;;7.90;99.90;;;;;;5052995;28;19908;-53
2022/12/27 10:19:17;;;;;;;;;;;8.30;99.90;;;;;;5052875;28;19917;-52
2022/12/27 10:21:53;;;;;;;;;;;8.50;99.90;;;;;;5052952;28;20042;-53
2022/12/27 10:24:25;;;;;;;;;;;8.70;99.90;;;;;;5052538;28;20416;-52
2022/12/27 10:26:53;;;;;;;;;;;9.00;99.90;;;;;;5051586;28;19908;-48
2022/12/27 10:29:20;;;;;;;;;;;9.10;99.90;;;;;;5052733;28;19909;-53
2022/12/27 10:31:46;;;;;;;;;;;9.40;99.90;;;;;;5053204;28;20351;-49
2022/12/27 10:34:13;;;;;;;;;;;10.10;99.90;;;;;;5052923;28;19915;-51
2022/12/27 10:36:40;;;;;;;;;;;10.50;99.90;;;;;;5052497;28;20003;-52
2022/12/27 10:39:14;;;;;;;;;;;11.10;99.90;;;;;;5052744;28;19931;-51
2022/12/27 10:41:48;;;;;;;;;;;11.40;99.90;;;;;;5052714;28;19908;-52
2022/12/27 10:44:14;;;;;;;;;;;11.40;99.90;;;;;;5052766;28;20190;-51
2022/12/27 10:46:42;;;;;;;;;;;11.00;99.90;;;;;;5052330;28;20353;-51
2022/12/27 10:49:20;;;;;;;;;;;11.10;99.90;;;;;;5052456;28;20372;-50
2022/12/27 10:51:46;;;;;;;;;;;11.40;99.90;;;;;;5052585;28;19961;-53
2022/12/27 10:54:12;;;;;;;;;;;12.00;99.90;;;;;;5052428;28;19913;-49
2022/12/27 10:56:40;;;;;;;;;;;12.20;99.90;;;;;;5052456;28;19999;-52
2022/12/27 10:59:34;;;;;;;;;;;12.30;99.90;;;;;;5052589;28;19912;-50
2022/12/27 11:02:00;;;;;;;;;;;12.20;99.90;;;;;;5034881;28;19909;-54
2022/12/27 11:04:26;;;;;;;;;;;12.00;99.90;;;;;;5052388;28;19912;-54
2022/12/27 11:07:01;;;;;;;;;;;11.30;99.90;;;;;;5051934;28;19909;-51
2022/12/27 11:09:28;;;;;;;;;;;10.80;99.90;;;;;;5052258;28;20352;-51
2022/12/27 11:12:16;;;;;;;;;;;10.40;99.90;;;;;;5052207;28;20000;-49
2022/12/27 11:14:56;;;;;;;;;;;9.90;99.90;;;;;;5052270;28;19913;-51
2022/12/27 11:17:31;;;;;;;;;;;9.60;99.90;;;;;;5052014;28;19915;-52
2022/12/27 11:19:59;;;;;;;;;;;9.20;99.90;;;;;;5051816;28;19912;-49
2022/12/27 11:22:25;;;;;;;;;;;9.00;99.90;;;;;;5052075;28;19905;-53
2022/12/27 11:24:54;;;;;;;;;;;8.90;99.90;;;;;;5051874;28;19999;-50
2022/12/27 11:27:24;;;;;;;;;;;9.00;99.90;;;;;;5051660;28;19931;-53
2022/12/27 11:29:52;;;;;;;;;;;8.70;99.90;;;;;;5051720;28;19909;-50
2022/12/27 11:32:18;;;;;;;;;;;8.70;99.90;;;;;;5051707;28;20399;-51
2022/12/27 11:34:45;;;;;;;;;;;8.80;99.90;;;;;;5051774;28;19955;-53
2022/12/27 11:37:13;;;;;;;;;;;8.90;99.90;;;;;;5050867;28;20400;-49
2022/12/27 11:39:45;;;;;;;;;;;9.20;99.90;;;;;;5051550;28;20289;-50
2022/12/27 11:42:24;;;;;;;;;;;9.40;99.90;;;;;;5052051;28;19912;-53
2022/12/27 11:44:56;;;;;;;;;;;9.50;99.90;;;;;;5051782;28;20388;-51
2022/12/27 11:47:37;;;;;;;;;;;9.30;99.90;;;;;;5051160;28;19995;-52
2022/12/27 11:50:22;;;;;;;;;;;9.50;99.90;;;;;;5051267;28;19908;-54
2022/12/27 11:53:10;;;;;;;;;;;9.30;99.90;;;;;;5051497;28;19915;-53
2022/12/27 11:55:48;;;;;;;;;;;9.40;99.90;;;;;;5013645;28;20351;-51
2022/12/27 11:58:23;;;;;;;;;;;9.30;99.90;;;;;;5051081;28;20019;-54
2022/12/27 12:00:55;;;;;;;;;;;9.40;99.90;;;;;;5049927;28;20004;-52
2022/12/27 12:03:26;;;;;;;;;;;9.20;99.90;;;;;;5051285;28;20015;-52
2022/12/27 12:06:00;;;;;;;;;;;9.00;99.90;;;;;;5051324;28;19917;-54
2022/12/27 12:09:01;;;;;;;;;;;8.80;99.90;;;;;;5051262;28;20300;-51
2022/12/27 12:11:36;;;;;;;;;;;8.60;99.90;;;;;;4969807;28;19936;-53
2022/12/27 12:14:20;;;;;;;;;;;8.50;99.90;;;;;;5039296;28;19909;-51
2022/12/27 12:17:01;;;;;;;;;;;8.30;99.90;;;;;;5050880;28;19920;-53
2022/12/27 12:19:52;;;;;;;;;;;8.20;99.90;;;;;;5050996;28;20265;-50
2022/12/27 12:22:17;;;;;;;;;;;8.10;99.90;;;;;;5051132;28;19962;-53
2022/12/27 12:25:01;;;;;;;;;;;8.00;99.90;;;;;;5051142;28;19912;-51
2022/12/27 12:27:45;;;;;;;;;;;7.90;99.90;;;;;;5050643;28;19979;-53
2022/12/27 12:30:17;;;;;;;;;;;7.90;99.90;;;;;;5050744;28;20209;-50
2022/12/27 12:32:42;;;;;;;;;;;7.80;99.90;;;;;;5051063;28;19908;-52
2022/12/27 12:35:30;;;;;;;;;;;7.70;99.90;;;;;;5051015;28;19908;-55
2022/12/27 12:38:00;;;;;;;;;;;7.70;99.90;;;;;;5051172;28;19999;-50
2022/12/27 12:40:31;;;;;;;;;;;7.70;99.90;;;;;;5050672;28;19999;-52
2022/12/27 12:43:00;;;;;;;;;;;7.70;99.90;;;;;;5050949;28;19912;-50
2022/12/27 12:45:28;;;;;;;;;;;7.50;99.90;;;;;;5050858;28;19909;-50
2022/12/27 12:47:54;;;;;;;;;;;7.50;99.90;;;;;;5051836;28;19912;-53
2022/12/27 12:50:25;;;;;;;;;;;7.50;99.90;;;;;;5054660;28;19908;-54
2022/12/27 12:52:57;;;;;;;;;;;7.50;99.90;;;;;;5054876;28;19937;-54
2022/12/27 12:55:33;;;;;;;;;;;7.50;99.90;;;;;;5054980;28;19920;-53
2022/12/27 12:58:30;;;;;;;;;;;7.50;99.90;;;;;;5054470;28;19908;-54
2022/12/27 13:01:15;;;;;;;;;;;7.50;99.90;;;;;;5054653;28;20368;-53
2022/12/27 13:03:49;;;;;;;;;;;7.40;99.90;;;;;;5054483;28;19912;-52
2022/12/27 13:06:14;;;;;;;;;;;7.50;99.90;;;;;;5054734;28;20025;-52
2022/12/27 13:08:58;;;;;;;;;;;7.50;99.90;;;;;;5054254;28;20399;-52
2022/12/27 13:11:33;;;;;;;;;;;7.50;99.90;;;;;;5054400;28;19915;-54
2022/12/27 13:14:04;;;;;;;;;;;7.50;99.90;;;;;;5054325;28;19912;-51
2022/12/27 13:16:50;;;;;;;;;;;7.50;99.90;;;;;;5054226;28;19909;-52
2022/12/27 13:19:33;;;;;;;;;;;7.40;99.90;;;;;;5054052;28;19944;-54
2022/12/27 13:22:15;;;;;;;;;;;7.50;99.90;;;;;;5054344;28;19913;-53
2022/12/27 13:24:59;;;;;;;;;;;7.50;99.90;;;;;;5054540;28;19917;-51
2022/12/27 13:27:51;;;;;;;;;;;7.50;99.90;;;;;;5053936;28;20011;-50
2022/12/27 13:30:21;;;;;;;;;;;7.50;99.90;;;;;;5049858;28;20265;-51
2022/12/27 13:33:16;;;;;;;;;;;7.50;99.90;;;;;;5053829;28;19909;-54
2022/12/27 13:35:47;;;;;;;;;;;7.40;99.90;;;;;;5036505;28;20365;-52
2022/12/27 13:38:13;;;;;;;;;;;7.40;99.90;;;;;;5053716;28;19909;-53
2022/12/27 13:40:54;;;;;;;;;;;7.40;99.90;;;;;;5053785;28;19915;-52
2022/12/27 13:43:29;;;;;;;;;;;7.50;99.90;;;;;;5054025;28;19914;-54
2022/12/27 13:46:15;;;;;;;;;;;7.60;99.90;;;;;;5053891;28;19908;-55
2022/12/27 13:48:59;;;;;;;;;;;7.60;99.90;;;;;;5039179;28;19913;-52
2022/12/27 13:51:44;;;;;;;;;;;7.50;99.90;;;;;;5052398;28;19986;-53
2022/12/27 13:54:30;;;;;;;;;;;7.50;99.90;;;;;;5053927;28;19916;-51
2022/12/27 13:57:01;;;;;;;;;;;7.40;99.90;;;;;;5053259;28;19932;-55
2022/12/27 13:59:45;;;;;;;;;;;7.40;99.90;;;;;;5052367;28;19909;-51
2022/12/27 14:02:13;;;;;;;;;;;7.40;99.90;;;;;;5053768;28;20269;-51
2022/12/27 14:04:55;;;;;;;;;;;7.30;99.90;;;;;;5053439;28;20019;-54
2022/12/27 14:07:30;;;;;;;;;;;7.30;99.90;;;;;;5053247;28;20330;-51
2022/12/27 14:10:15;;;;;;;;;;;7.30;99.90;;;;;;5053673;28;19908;-54
2022/12/27 14:12:59;;;;;;;;;;;7.30;99.90;;;;;;5053478;28;19977;-51
2022/12/27 14:15:27;;;;;;;;;;;7.30;99.90;;;;;;5053135;28;19915;-50
2022/12/27 14:17:59;;;;;;;;;;;7.30;99.90;;;;;;5052991;28;20380;-53
2022/12/27 14:20:33;;;;;;;;;;;7.30;99.90;;;;;;5053128;28;19912;-53
2022/12/27 14:23:17;;;;;;;;;;;7.40;99.90;;;;;;5053404;28;19919;-54
2022/12/27 14:26:02;;;;;;;;;;;7.30;99.90;;;;;;5053084;28;19912;-54
2022/12/27 14:28:46;;;;;;;;;;;7.30;99.90;;;;;;5052819;28;19931;-53
2022/12/27 14:31:23;;;;;;;;;;;7.30;99.90;;;;;;5053219;28;19909;-53
2022/12/27 14:34:19;;;;;;;;;;;7.30;99.90;;;;;;5052943;28;19908;-52
2022/12/27 14:37:23;;;;;;;;;;;7.30;99.90;;;;;;5052717;28;19916;-50
2022/12/27 14:39:57;;;;;;;;;;;7.30;99.90;;;;;;4971370;28;19949;-51
2022/12/27 14:42:29;;;;;;;;;;;7.30;99.90;;;;;;4971433;28;20383;-50
2022/12/27 14:45:10;;;;;;;;;;;7.40;99.90;;;;;;5017235;28;19912;-52
2022/12/27 14:47:36;;;;;;;;;;;7.30;99.90;;;;;;5064107;22;19924;-50
2022/12/27 14:50:20;;;;;;;;;;;7.30;99.90;;;;;;5052110;28;20313;-52
2022/12/27 14:52:48;;;;;;;;;;;7.20;99.90;;;;;;5052550;28;19916;-53
2022/12/27 14:55:17;;;;;;;;;;;7.20;99.90;;;;;;5052407;28;20008;-52
2022/12/27 14:58:00;;;;;;;;;;;7.10;99.90;;;;;;5052169;28;19909;-50
2022/12/27 15:00:28;;;;;;;;;;;7.10;99.90;;;;;;5052279;28;20343;-51
2022/12/27 15:03:11;;;;;;;;;;;7.10;99.90;;;;;;5052321;28;20365;-52
2022/12/27 15:05:46;;;;;;;;;;;7.00;99.90;;;;;;5052357;28;20335;-51
2022/12/27 15:08:17;;;;;;;;;;;7.00;99.90;;;;;;5052226;28;19948;-52
2022/12/27 15:10:51;;;;;;;;;;;6.90;99.90;;;;;;5052108;28;19909;-50
2022/12/27 15:13:32;;;;;;;;;;;6.90;99.90;;;;;;5052195;28;19909;-51
2022/12/27 15:15:58;;;;;;;;;;;6.80;99.90;;;;;;5052032;28;19924;-51
2022/12/27 15:18:23;;;;;;;;;;;6.80;99.90;;;;;;5051795;28;20384;-50
2022/12/27 15:21:05;;;;;;;;;;;6.80;99.90;;;;;;5051981;28;19955;-53
2022/12/27 15:23:36;;;;;;;;;;;6.80;99.90;;;;;;5052008;28;20274;-52
2022/12/27 15:26:14;;;;;;;;;;;6.80;99.90;;;;;;5051887;28;19909;-50
2022/12/27 15:29:00;;;;;;;;;;;6.80;99.90;;;;;;5051354;28;19917;-54
2022/12/27 15:31:55;;;;;;;;;;;6.70;99.90;;;;;;5051856;28;19913;-52
2022/12/27 15:34:23;;;;;;;;;;;6.60;99.90;;;;;;5034237;28;19909;-53
2022/12/27 15:36:49;;;;;;;;;;;6.60;99.90;;;;;;5051486;28;19909;-53
2022/12/27 15:39:34;;;;;;;;;;;6.50;99.90;;;;;;5051503;28;19913;-52
2022/12/27 15:41:59;;;;;;;;;;;6.50;99.90;;;;;;5051710;28;19962;-49
2022/12/27 15:44:33;;;;;;;;;;;6.50;99.90;;;;;;5051511;28;20304;-52
2022/12/27 15:47:17;;;;;;;;;;;6.60;99.90;;;;;;5051279;28;19931;-51
2022/12/27 15:50:08;;;;;;;;;;;6.60;99.90;;;;;;5051347;28;19916;-51
2022/12/27 15:52:47;;;;;;;;;;;6.60;99.90;;;;;;5051625;28;20292;-50
2022/12/27 15:55:12;;;;;;;;;;;6.60;99.90;;;;;;5051518;28;19908;-51
2022/12/27 15:57:38;;;;;;;;;;;6.50;99.90;;;;;;5051105;28;20426;-53
2022/12/27 16:00:13;;;;;;;;;;;6.60;99.90;;;;;;5051280;28;19934;-49
2022/12/27 16:02:48;;;;;;;;;;;6.70;99.90;;;;;;5051549;28;20388;-51
2022/12/27 16:05:19;;;;;;;;;;;6.70;99.90;;;;;;5051342;28;19916;-53
2022/12/27 16:07:57;;;;;;;;;;;6.70;99.90;;;;;;5051069;28;19916;-50
2022/12/27 16:10:29;;;;;;;;;;;6.70;99.90;;;;;;5051181;28;20337;-49
2022/12/27 16:12:57;;;;;;;;;;;6.70;99.90;;;;;;5051265;28;19909;-50
2022/12/27 16:15:42;;;;;;;;;;;6.70;99.90;;;;;;5051194;28;19999;-51
2022/12/27 16:18:27;;;;;;;;;;;6.70;99.90;;;;;;5050912;28;19916;-49
2022/12/27 16:21:00;;;;;;;;;;;6.70;99.90;;;;;;5050921;28;19916;-49